sensor_id;sensor_type;location;lat;lon;timestamp;P1;durP1;ratioP1;P2;durP2;ratioP2
29838;SDS011;18669;53.356;-1.464;2023-04-03T00:02:21;4.95;;;2.45;;
29838;SDS011;18669;53.356;-1.464;2023-04-03T00:05:06;10.60;;;2.53;;
29838;SDS011;18669;53.356;-1.464;2023-04-03T00:07:52;5.25;;;2.25;;
29838;SDS011;18669;53.356;-1.464;2023-04-03T00:10:37;5.30;;;2.05;;
29838;SDS011;18669;53.356;-1.464;2023-04-03T00:13:21;4.50;;;2.22;;
29838;SDS011;18669;53.356;-1.464;2023-04-03T00:16:07;6.40;;;2.25;;
29838;SDS011;18669;53.356;-1.464;2023-04-03T00:18:52;5.28;;;2.60;;
29838;SDS011;18669;53.356;-1.464;2023-04-03T00:21:37;5.60;;;2.13;;
29838;SDS011;18669;53.356;-1.464;2023-04-03T00:24:22;5.18;;;2.55;;
29838;SDS011;18669;53.356;-1.464;2023-04-03T00:27:07;5.70;;;2.60;;
29838;SDS011;18669;53.356;-1.464;2023-04-03T00:29:52;4.07;;;2.28;;
29838;SDS011;18669;53.356;-1.464;2023-04-03T00:32:36;9.00;;;3.00;;
29838;SDS011;18669;53.356;-1.464;2023-04-03T00:35:22;6.88;;;2.55;;
29838;SDS011;18669;53.356;-1.464;2023-04-03T00:38:08;3.22;;;2.25;;
29838;SDS011;18669;53.356;-1.464;2023-04-03T00:40:53;7.03;;;2.70;;
29838;SDS011;18669;53.356;-1.464;2023-04-03T00:43:38;8.35;;;3.00;;
29838;SDS011;18669;53.356;-1.464;2023-04-03T00:46:22;5.35;;;2.80;;
29838;SDS011;18669;53.356;-1.464;2023-04-03T00:49:07;8.43;;;2.55;;
29838;SDS011;18669;53.356;-1.464;2023-04-03T00:51:52;5.10;;;2.70;;
29838;SDS011;18669;53.356;-1.464;2023-04-03T00:54:38;7.50;;;3.08;;
29838;SDS011;18669;53.356;-1.464;2023-04-03T00:57:25;6.13;;;3.20;;
29838;SDS011;18669;53.356;-1.464;2023-04-03T01:00:12;9.18;;;2.70;;
29838;SDS011;18669;53.356;-1.464;2023-04-03T01:03:01;6.85;;;3.22;;
29838;SDS011;18669;53.356;-1.464;2023-04-03T01:05:45;5.32;;;3.10;;
29838;SDS011;18669;53.356;-1.464;2023-04-03T01:08:30;9.18;;;3.55;;
29838;SDS011;18669;53.356;-1.464;2023-04-03T01:11:15;7.45;;;4.03;;
29838;SDS011;18669;53.356;-1.464;2023-04-03T01:14:00;8.07;;;3.25;;
29838;SDS011;18669;53.356;-1.464;2023-04-03T01:16:55;12.02;;;3.35;;
29838;SDS011;18669;53.356;-1.464;2023-04-03T01:19:40;11.40;;;3.90;;
29838;SDS011;18669;53.356;-1.464;2023-04-03T01:22:34;11.32;;;4.22;;
29838;SDS011;18669;53.356;-1.464;2023-04-03T01:25:56;6.20;;;3.33;;
29838;SDS011;18669;53.356;-1.464;2023-04-03T01:28:40;7.97;;;3.40;;
29838;SDS011;18669;53.356;-1.464;2023-04-03T01:31:26;8.88;;;3.22;;
29838;SDS011;18669;53.356;-1.464;2023-04-03T01:34:12;5.28;;;3.63;;
29838;SDS011;18669;53.356;-1.464;2023-04-03T01:36:57;6.70;;;3.47;;
29838;SDS011;18669;53.356;-1.464;2023-04-03T01:39:41;9.70;;;3.35;;
29838;SDS011;18669;53.356;-1.464;2023-04-03T01:42:26;9.23;;;3.88;;
29838;SDS011;18669;53.356;-1.464;2023-04-03T01:45:11;9.25;;;3.20;;
29838;SDS011;18669;53.356;-1.464;2023-04-03T01:47:56;8.52;;;3.30;;
29838;SDS011;18669;53.356;-1.464;2023-04-03T01:50:41;8.43;;;3.08;;
29838;SDS011;18669;53.356;-1.464;2023-04-03T01:53:25;6.90;;;2.78;;
29838;SDS011;18669;53.356;-1.464;2023-04-03T01:56:10;8.60;;;3.13;;
29838;SDS011;18669;53.356;-1.464;2023-04-03T01:58:55;9.60;;;3.35;;
29838;SDS011;18669;53.356;-1.464;2023-04-03T02:01:40;6.28;;;3.47;;
29838;SDS011;18669;53.356;-1.464;2023-04-03T02:04:25;5.70;;;2.95;;
29838;SDS011;18669;53.356;-1.464;2023-04-03T02:07:10;6.63;;;2.95;;
29838;SDS011;18669;53.356;-1.464;2023-04-03T02:09:55;6.50;;;2.97;;
29838;SDS011;18669;53.356;-1.464;2023-04-03T02:12:39;6.05;;;2.88;;
29838;SDS011;18669;53.356;-1.464;2023-04-03T02:15:24;5.25;;;3.00;;
29838;SDS011;18669;53.356;-1.464;2023-04-03T02:18:09;5.90;;;2.90;;
29838;SDS011;18669;53.356;-1.464;2023-04-03T02:20:54;4.90;;;2.63;;
29838;SDS011;18669;53.356;-1.464;2023-04-03T02:23:39;4.38;;;2.63;;
29838;SDS011;18669;53.356;-1.464;2023-04-03T02:26:24;8.18;;;2.80;;
29838;SDS011;18669;53.356;-1.464;2023-04-03T02:29:10;4.85;;;2.42;;
29838;SDS011;18669;53.356;-1.464;2023-04-03T02:31:54;5.65;;;2.60;;
29838;SDS011;18669;53.356;-1.464;2023-04-03T02:34:39;7.05;;;2.30;;
29838;SDS011;18669;53.356;-1.464;2023-04-03T02:37:24;5.50;;;2.60;;
29838;SDS011;18669;53.356;-1.464;2023-04-03T02:40:09;7.05;;;2.47;;
29838;SDS011;18669;53.356;-1.464;2023-04-03T02:42:55;5.20;;;2.65;;
29838;SDS011;18669;53.356;-1.464;2023-04-03T02:45:40;6.43;;;2.65;;
29838;SDS011;18669;53.356;-1.464;2023-04-03T02:48:25;3.83;;;2.63;;
29838;SDS011;18669;53.356;-1.464;2023-04-03T02:51:10;6.50;;;2.90;;
29838;SDS011;18669;53.356;-1.464;2023-04-03T02:53:55;4.05;;;2.50;;
29838;SDS011;18669;53.356;-1.464;2023-04-03T02:56:40;5.85;;;2.65;;
29838;SDS011;18669;53.356;-1.464;2023-04-03T02:59:25;4.57;;;2.40;;
29838;SDS011;18669;53.356;-1.464;2023-04-03T03:02:10;6.35;;;2.10;;
29838;SDS011;18669;53.356;-1.464;2023-04-03T03:04:55;6.30;;;3.10;;
29838;SDS011;18669;53.356;-1.464;2023-04-03T03:07:40;6.28;;;2.60;;
29838;SDS011;18669;53.356;-1.464;2023-04-03T03:10:25;5.65;;;2.45;;
29838;SDS011;18669;53.356;-1.464;2023-04-03T03:13:10;7.47;;;2.70;;
29838;SDS011;18669;53.356;-1.464;2023-04-03T03:15:55;9.38;;;2.35;;
29838;SDS011;18669;53.356;-1.464;2023-04-03T03:18:41;6.00;;;2.05;;
29838;SDS011;18669;53.356;-1.464;2023-04-03T03:21:25;2.97;;;1.90;;
29838;SDS011;18669;53.356;-1.464;2023-04-03T03:24:10;6.22;;;2.63;;
29838;SDS011;18669;53.356;-1.464;2023-04-03T03:26:56;6.07;;;2.30;;
29838;SDS011;18669;53.356;-1.464;2023-04-03T03:29:41;8.95;;;2.40;;
29838;SDS011;18669;53.356;-1.464;2023-04-03T03:32:26;5.47;;;2.60;;
29838;SDS011;18669;53.356;-1.464;2023-04-03T03:35:11;7.20;;;2.03;;
29838;SDS011;18669;53.356;-1.464;2023-04-03T03:37:56;8.68;;;2.63;;
29838;SDS011;18669;53.356;-1.464;2023-04-03T03:40:41;7.38;;;2.13;;
29838;SDS011;18669;53.356;-1.464;2023-04-03T03:43:26;2.97;;;2.00;;
29838;SDS011;18669;53.356;-1.464;2023-04-03T03:46:11;4.60;;;2.67;;
29838;SDS011;18669;53.356;-1.464;2023-04-03T03:48:56;6.22;;;2.53;;
29838;SDS011;18669;53.356;-1.464;2023-04-03T03:51:41;7.72;;;2.40;;
29838;SDS011;18669;53.356;-1.464;2023-04-03T03:54:26;3.83;;;2.28;;
29838;SDS011;18669;53.356;-1.464;2023-04-03T03:57:11;8.52;;;2.60;;
29838;SDS011;18669;53.356;-1.464;2023-04-03T03:59:56;5.32;;;2.65;;
29838;SDS011;18669;53.356;-1.464;2023-04-03T04:02:40;8.98;;;2.22;;
29838;SDS011;18669;53.356;-1.464;2023-04-03T04:05:26;6.85;;;2.55;;
29838;SDS011;18669;53.356;-1.464;2023-04-03T04:08:11;8.88;;;2.85;;
29838;SDS011;18669;53.356;-1.464;2023-04-03T04:10:55;8.82;;;2.83;;
29838;SDS011;18669;53.356;-1.464;2023-04-03T04:13:40;3.35;;;2.20;;
29838;SDS011;18669;53.356;-1.464;2023-04-03T04:16:25;6.57;;;2.17;;
29838;SDS011;18669;53.356;-1.464;2023-04-03T04:19:10;5.68;;;2.33;;
29838;SDS011;18669;53.356;-1.464;2023-04-03T04:21:55;6.25;;;2.53;;
29838;SDS011;18669;53.356;-1.464;2023-04-03T04:24:40;6.47;;;2.38;;
29838;SDS011;18669;53.356;-1.464;2023-04-03T04:27:25;9.65;;;2.67;;
29838;SDS011;18669;53.356;-1.464;2023-04-03T04:30:10;5.00;;;2.40;;
29838;SDS011;18669;53.356;-1.464;2023-04-03T04:32:55;9.75;;;2.83;;
29838;SDS011;18669;53.356;-1.464;2023-04-03T04:35:41;6.45;;;3.03;;
29838;SDS011;18669;53.356;-1.464;2023-04-03T04:38:27;8.00;;;3.10;;
29838;SDS011;18669;53.356;-1.464;2023-04-03T04:41:11;7.70;;;2.72;;
29838;SDS011;18669;53.356;-1.464;2023-04-03T04:43:56;2.70;;;2.08;;
29838;SDS011;18669;53.356;-1.464;2023-04-03T04:46:42;11.05;;;3.10;;
29838;SDS011;18669;53.356;-1.464;2023-04-03T04:49:26;4.72;;;2.80;;
29838;SDS011;18669;53.356;-1.464;2023-04-03T04:52:11;8.90;;;3.20;;
29838;SDS011;18669;53.356;-1.464;2023-04-03T04:54:56;6.63;;;2.75;;
29838;SDS011;18669;53.356;-1.464;2023-04-03T04:57:41;6.07;;;2.95;;
29838;SDS011;18669;53.356;-1.464;2023-04-03T05:00:26;4.53;;;2.67;;
29838;SDS011;18669;53.356;-1.464;2023-04-03T05:03:11;6.70;;;2.97;;
29838;SDS011;18669;53.356;-1.464;2023-04-03T05:05:56;15.65;;;2.63;;
29838;SDS011;18669;53.356;-1.464;2023-04-03T05:08:41;5.47;;;2.90;;
29838;SDS011;18669;53.356;-1.464;2023-04-03T05:11:26;5.88;;;2.60;;
29838;SDS011;18669;53.356;-1.464;2023-04-03T05:14:11;7.80;;;2.63;;
29838;SDS011;18669;53.356;-1.464;2023-04-03T05:16:56;7.35;;;2.80;;
29838;SDS011;18669;53.356;-1.464;2023-04-03T05:19:41;6.85;;;2.63;;
29838;SDS011;18669;53.356;-1.464;2023-04-03T05:22:26;6.40;;;2.85;;
29838;SDS011;18669;53.356;-1.464;2023-04-03T05:25:11;10.40;;;3.08;;
29838;SDS011;18669;53.356;-1.464;2023-04-03T05:27:56;6.20;;;2.65;;
29838;SDS011;18669;53.356;-1.464;2023-04-03T05:30:41;5.28;;;3.15;;
29838;SDS011;18669;53.356;-1.464;2023-04-03T05:33:26;5.40;;;2.75;;
29838;SDS011;18669;53.356;-1.464;2023-04-03T05:36:11;10.73;;;2.90;;
29838;SDS011;18669;53.356;-1.464;2023-04-03T05:38:56;9.60;;;2.88;;
29838;SDS011;18669;53.356;-1.464;2023-04-03T05:41:42;6.65;;;3.00;;
29838;SDS011;18669;53.356;-1.464;2023-04-03T05:44:27;5.55;;;3.05;;
29838;SDS011;18669;53.356;-1.464;2023-04-03T05:47:11;6.32;;;2.72;;
29838;SDS011;18669;53.356;-1.464;2023-04-03T05:49:56;5.30;;;3.33;;
29838;SDS011;18669;53.356;-1.464;2023-04-03T05:52:42;5.20;;;3.50;;
29838;SDS011;18669;53.356;-1.464;2023-04-03T05:55:29;4.40;;;2.72;;
29838;SDS011;18669;53.356;-1.464;2023-04-03T05:58:14;7.45;;;3.10;;
29838;SDS011;18669;53.356;-1.464;2023-04-03T06:00:59;10.20;;;3.35;;
29838;SDS011;18669;53.356;-1.464;2023-04-03T06:03:44;9.75;;;3.00;;
29838;SDS011;18669;53.356;-1.464;2023-04-03T06:09:47;8.65;;;3.63;;
29838;SDS011;18669;53.356;-1.464;2023-04-03T06:12:32;12.18;;;3.20;;
29838;SDS011;18669;53.356;-1.464;2023-04-03T06:15:17;5.53;;;3.13;;
29838;SDS011;18669;53.356;-1.464;2023-04-03T06:18:02;9.35;;;3.67;;
29838;SDS011;18669;53.356;-1.464;2023-04-03T06:20:46;8.18;;;3.30;;
29838;SDS011;18669;53.356;-1.464;2023-04-03T06:23:31;12.85;;;3.40;;
29838;SDS011;18669;53.356;-1.464;2023-04-03T06:26:16;10.02;;;3.38;;
29838;SDS011;18669;53.356;-1.464;2023-04-03T06:29:02;9.38;;;3.33;;
29838;SDS011;18669;53.356;-1.464;2023-04-03T06:31:46;8.40;;;3.63;;
29838;SDS011;18669;53.356;-1.464;2023-04-03T06:34:32;9.30;;;3.45;;
29838;SDS011;18669;53.356;-1.464;2023-04-03T06:37:18;7.00;;;3.17;;
29838;SDS011;18669;53.356;-1.464;2023-04-03T06:42:49;8.65;;;3.00;;
29838;SDS011;18669;53.356;-1.464;2023-04-03T06:45:34;6.85;;;2.85;;
29838;SDS011;18669;53.356;-1.464;2023-04-03T06:48:20;5.10;;;2.55;;
29838;SDS011;18669;53.356;-1.464;2023-04-03T06:51:05;4.10;;;2.72;;
29838;SDS011;18669;53.356;-1.464;2023-04-03T06:53:51;8.23;;;3.58;;
29838;SDS011;18669;53.356;-1.464;2023-04-03T06:56:37;5.97;;;3.13;;
29838;SDS011;18669;53.356;-1.464;2023-04-03T06:59:22;10.15;;;6.88;;
29838;SDS011;18669;53.356;-1.464;2023-04-03T07:02:08;11.88;;;4.20;;
29838;SDS011;18669;53.356;-1.464;2023-04-03T07:04:54;8.43;;;4.20;;
29838;SDS011;18669;53.356;-1.464;2023-04-03T07:07:39;10.95;;;6.20;;
29838;SDS011;18669;53.356;-1.464;2023-04-03T07:10:25;6.65;;;4.20;;
29838;SDS011;18669;53.356;-1.464;2023-04-03T07:13:10;7.90;;;3.28;;
29838;SDS011;18669;53.356;-1.464;2023-04-03T07:15:55;5.78;;;3.30;;
29838;SDS011;18669;53.356;-1.464;2023-04-03T07:18:40;10.95;;;4.13;;
29838;SDS011;18669;53.356;-1.464;2023-04-03T07:21:25;10.40;;;4.20;;
29838;SDS011;18669;53.356;-1.464;2023-04-03T07:24:10;6.63;;;3.85;;
29838;SDS011;18669;53.356;-1.464;2023-04-03T07:26:55;10.18;;;4.40;;
29838;SDS011;18669;53.356;-1.464;2023-04-03T07:29:40;6.20;;;4.00;;
29838;SDS011;18669;53.356;-1.464;2023-04-03T07:32:25;7.68;;;4.43;;
29838;SDS011;18669;53.356;-1.464;2023-04-03T07:35:10;10.82;;;4.85;;
29838;SDS011;18669;53.356;-1.464;2023-04-03T07:37:55;11.02;;;4.45;;
29838;SDS011;18669;53.356;-1.464;2023-04-03T07:40:40;14.23;;;4.68;;
29838;SDS011;18669;53.356;-1.464;2023-04-03T07:43:29;8.57;;;4.47;;
29838;SDS011;18669;53.356;-1.464;2023-04-03T07:46:14;8.32;;;4.40;;
29838;SDS011;18669;53.356;-1.464;2023-04-03T07:48:59;9.95;;;4.13;;
29838;SDS011;18669;53.356;-1.464;2023-04-03T07:51:44;9.85;;;4.60;;
29838;SDS011;18669;53.356;-1.464;2023-04-03T07:54:29;6.53;;;4.60;;
29838;SDS011;18669;53.356;-1.464;2023-04-03T07:57:14;11.85;;;4.80;;
29838;SDS011;18669;53.356;-1.464;2023-04-03T07:59:59;12.63;;;4.95;;
29838;SDS011;18669;53.356;-1.464;2023-04-03T08:02:44;9.35;;;3.90;;
29838;SDS011;18669;53.356;-1.464;2023-04-03T08:05:37;8.05;;;3.83;;
29838;SDS011;18669;53.356;-1.464;2023-04-03T08:08:24;9.75;;;4.20;;
29838;SDS011;18669;53.356;-1.464;2023-04-03T08:11:09;8.55;;;3.90;;
29838;SDS011;18669;53.356;-1.464;2023-04-03T08:13:55;13.27;;;3.75;;
29838;SDS011;18669;53.356;-1.464;2023-04-03T08:16:40;7.80;;;3.30;;
29838;SDS011;18669;53.356;-1.464;2023-04-03T08:19:25;6.20;;;2.38;;
29838;SDS011;18669;53.356;-1.464;2023-04-03T08:22:11;6.10;;;2.63;;
29838;SDS011;18669;53.356;-1.464;2023-04-03T08:24:56;10.25;;;1.75;;
29838;SDS011;18669;53.356;-1.464;2023-04-03T08:27:40;4.20;;;1.58;;
29838;SDS011;18669;53.356;-1.464;2023-04-03T08:30:25;6.75;;;1.20;;
29838;SDS011;18669;53.356;-1.464;2023-04-03T08:33:10;4.22;;;1.50;;
29838;SDS011;18669;53.356;-1.464;2023-04-03T08:35:55;6.88;;;1.75;;
29838;SDS011;18669;53.356;-1.464;2023-04-03T08:38:40;4.40;;;1.20;;
29838;SDS011;18669;53.356;-1.464;2023-04-03T08:50:18;4.30;;;1.23;;
29838;SDS011;18669;53.356;-1.464;2023-04-03T08:53:14;5.63;;;1.77;;
29838;SDS011;18669;53.356;-1.464;2023-04-03T08:56:07;4.85;;;1.40;;
29838;SDS011;18669;53.356;-1.464;2023-04-03T08:58:58;3.97;;;1.10;;
29838;SDS011;18669;53.356;-1.464;2023-04-03T09:01:46;8.48;;;2.28;;
29838;SDS011;18669;53.356;-1.464;2023-04-03T09:04:31;9.65;;;1.85;;
29838;SDS011;18669;53.356;-1.464;2023-04-03T09:07:25;5.53;;;1.38;;
29838;SDS011;18669;53.356;-1.464;2023-04-03T09:10:19;4.07;;;1.33;;
29838;SDS011;18669;53.356;-1.464;2023-04-03T09:16:10;6.25;;;2.17;;
29838;SDS011;18669;53.356;-1.464;2023-04-03T09:19:23;6.30;;;1.80;;
29838;SDS011;18669;53.356;-1.464;2023-04-03T09:22:20;7.60;;;1.70;;
29838;SDS011;18669;53.356;-1.464;2023-04-03T09:25:13;7.28;;;1.63;;
29838;SDS011;18669;53.356;-1.464;2023-04-03T09:28:01;4.82;;;1.70;;
29838;SDS011;18669;53.356;-1.464;2023-04-03T09:30:47;8.77;;;1.35;;
29838;SDS011;18669;53.356;-1.464;2023-04-03T09:33:31;6.32;;;1.30;;
29838;SDS011;18669;53.356;-1.464;2023-04-03T09:39:28;6.78;;;1.27;;
29838;SDS011;18669;53.356;-1.464;2023-04-03T09:45:04;5.20;;;1.27;;
29838;SDS011;18669;53.356;-1.464;2023-04-03T09:47:49;3.35;;;1.20;;
29838;SDS011;18669;53.356;-1.464;2023-04-03T09:56:27;5.68;;;1.45;;
29838;SDS011;18669;53.356;-1.464;2023-04-03T09:59:14;5.07;;;1.02;;
29838;SDS011;18669;53.356;-1.464;2023-04-03T10:02:19;5.80;;;1.15;;
29838;SDS011;18669;53.356;-1.464;2023-04-03T10:05:52;6.43;;;1.40;;
29838;SDS011;18669;53.356;-1.464;2023-04-03T10:08:23;7.72;;;1.70;;
29838;SDS011;18669;53.356;-1.464;2023-04-03T10:11:16;10.48;;;1.90;;
29838;SDS011;18669;53.356;-1.464;2023-04-03T10:16:52;4.72;;;1.33;;
29838;SDS011;18669;53.356;-1.464;2023-04-03T10:19:51;6.32;;;1.50;;
29838;SDS011;18669;53.356;-1.464;2023-04-03T10:25:48;6.50;;;1.40;;
29838;SDS011;18669;53.356;-1.464;2023-04-03T10:31:59;8.50;;;1.48;;
29838;SDS011;18669;53.356;-1.464;2023-04-03T10:38:18;4.88;;;1.65;;
29838;SDS011;18669;53.356;-1.464;2023-04-03T10:47:24;9.98;;;1.77;;
29838;SDS011;18669;53.356;-1.464;2023-04-03T10:53:19;8.52;;;1.50;;
29838;SDS011;18669;53.356;-1.464;2023-04-03T10:56:15;11.20;;;2.15;;
29838;SDS011;18669;53.356;-1.464;2023-04-03T11:02:48;3.63;;;1.30;;
29838;SDS011;18669;53.356;-1.464;2023-04-03T11:05:44;3.63;;;1.50;;
29838;SDS011;18669;53.356;-1.464;2023-04-03T11:08:35;4.03;;;1.45;;
29838;SDS011;18669;53.356;-1.464;2023-04-03T11:11:35;7.70;;;1.95;;
29838;SDS011;18669;53.356;-1.464;2023-04-03T11:23:04;5.88;;;1.73;;
29838;SDS011;18669;53.356;-1.464;2023-04-03T11:25:56;10.20;;;2.00;;
29838;SDS011;18669;53.356;-1.464;2023-04-03T11:28:52;12.55;;;2.55;;
29838;SDS011;18669;53.356;-1.464;2023-04-03T11:34:44;5.13;;;1.63;;
29838;SDS011;18669;53.356;-1.464;2023-04-03T11:37:38;7.68;;;1.70;;
29838;SDS011;18669;53.356;-1.464;2023-04-03T11:40:27;5.63;;;1.85;;
29838;SDS011;18669;53.356;-1.464;2023-04-03T11:46:04;4.13;;;1.50;;
29838;SDS011;18669;53.356;-1.464;2023-04-03T11:48:51;6.28;;;2.10;;
29838;SDS011;18669;53.356;-1.464;2023-04-03T11:51:38;3.97;;;2.10;;
29838;SDS011;18669;53.356;-1.464;2023-04-03T11:57:43;8.13;;;2.13;;
29838;SDS011;18669;53.356;-1.464;2023-04-03T12:03:32;5.55;;;1.50;;
29838;SDS011;18669;53.356;-1.464;2023-04-03T12:09:04;10.60;;;1.80;;
29838;SDS011;18669;53.356;-1.464;2023-04-03T12:12:54;9.40;;;1.83;;
29838;SDS011;18669;53.356;-1.464;2023-04-03T12:27:25;6.78;;;1.63;;
29838;SDS011;18669;53.356;-1.464;2023-04-03T12:30:27;5.10;;;1.70;;
29838;SDS011;18669;53.356;-1.464;2023-04-03T12:33:26;7.75;;;1.67;;
29838;SDS011;18669;53.356;-1.464;2023-04-03T12:36:34;8.07;;;1.60;;
29838;SDS011;18669;53.356;-1.464;2023-04-03T12:42:32;9.75;;;1.92;;
29838;SDS011;18669;53.356;-1.464;2023-04-03T12:45:25;5.75;;;1.90;;
29838;SDS011;18669;53.356;-1.464;2023-04-03T12:48:17;8.50;;;1.95;;
29838;SDS011;18669;53.356;-1.464;2023-04-03T12:51:06;9.05;;;2.28;;
29838;SDS011;18669;53.356;-1.464;2023-04-03T12:53:52;11.95;;;2.05;;
29838;SDS011;18669;53.356;-1.464;2023-04-03T12:56:44;5.63;;;1.88;;
29838;SDS011;18669;53.356;-1.464;2023-04-03T12:59:29;8.23;;;2.17;;
29838;SDS011;18669;53.356;-1.464;2023-04-03T13:02:20;6.88;;;2.28;;
29838;SDS011;18669;53.356;-1.464;2023-04-03T13:05:06;6.25;;;1.80;;
29838;SDS011;18669;53.356;-1.464;2023-04-03T13:08:03;9.85;;;2.20;;
29838;SDS011;18669;53.356;-1.464;2023-04-03T13:10:58;9.63;;;2.00;;
29838;SDS011;18669;53.356;-1.464;2023-04-03T13:14:04;6.57;;;1.80;;
29838;SDS011;18669;53.356;-1.464;2023-04-03T13:16:59;5.47;;;2.00;;
29838;SDS011;18669;53.356;-1.464;2023-04-03T13:19:48;4.10;;;1.88;;
29838;SDS011;18669;53.356;-1.464;2023-04-03T13:22:33;9.82;;;1.90;;
29838;SDS011;18669;53.356;-1.464;2023-04-03T13:25:23;6.55;;;2.08;;
29838;SDS011;18669;53.356;-1.464;2023-04-03T13:28:12;6.97;;;2.00;;
29838;SDS011;18669;53.356;-1.464;2023-04-03T13:39:38;6.20;;;2.22;;
29838;SDS011;18669;53.356;-1.464;2023-04-03T13:42:25;10.20;;;2.00;;
29838;SDS011;18669;53.356;-1.464;2023-04-03T13:45:21;6.20;;;1.92;;
29838;SDS011;18669;53.356;-1.464;2023-04-03T13:48:16;6.22;;;1.92;;
29838;SDS011;18669;53.356;-1.464;2023-04-03T13:51:04;7.35;;;2.22;;
29838;SDS011;18669;53.356;-1.464;2023-04-03T13:54:53;7.35;;;1.60;;
29838;SDS011;18669;53.356;-1.464;2023-04-03T13:57:22;8.05;;;2.03;;
29838;SDS011;18669;53.356;-1.464;2023-04-03T14:03:16;6.35;;;2.42;;
29838;SDS011;18669;53.356;-1.464;2023-04-03T14:06:06;5.50;;;2.03;;
29838;SDS011;18669;53.356;-1.464;2023-04-03T14:08:54;7.78;;;2.05;;
29838;SDS011;18669;53.356;-1.464;2023-04-03T14:11:39;9.43;;;1.60;;
29838;SDS011;18669;53.356;-1.464;2023-04-03T14:14:29;5.78;;;2.28;;
29838;SDS011;18669;53.356;-1.464;2023-04-03T14:17:17;6.90;;;2.08;;
29838;SDS011;18669;53.356;-1.464;2023-04-03T14:20:10;5.45;;;1.50;;
29838;SDS011;18669;53.356;-1.464;2023-04-03T14:23:00;5.68;;;1.70;;
29838;SDS011;18669;53.356;-1.464;2023-04-03T14:25:45;3.67;;;1.75;;
29838;SDS011;18669;53.356;-1.464;2023-04-03T14:28:31;8.98;;;2.30;;
29838;SDS011;18669;53.356;-1.464;2023-04-03T14:31:17;7.07;;;1.92;;
29838;SDS011;18669;53.356;-1.464;2023-04-03T14:34:02;4.95;;;1.80;;
29838;SDS011;18669;53.356;-1.464;2023-04-03T14:36:47;5.78;;;1.73;;
29838;SDS011;18669;53.356;-1.464;2023-04-03T14:39:32;4.53;;;1.85;;
29838;SDS011;18669;53.356;-1.464;2023-04-03T14:42:22;6.97;;;1.80;;
29838;SDS011;18669;53.356;-1.464;2023-04-03T14:45:10;10.38;;;2.10;;
29838;SDS011;18669;53.356;-1.464;2023-04-03T14:47:56;11.80;;;2.10;;
29838;SDS011;18669;53.356;-1.464;2023-04-03T14:50:42;10.23;;;2.20;;
29838;SDS011;18669;53.356;-1.464;2023-04-03T14:53:27;10.77;;;2.17;;
29838;SDS011;18669;53.356;-1.464;2023-04-03T14:56:14;4.65;;;1.88;;
29838;SDS011;18669;53.356;-1.464;2023-04-03T14:59:04;7.38;;;1.85;;
29838;SDS011;18669;53.356;-1.464;2023-04-03T15:01:55;5.57;;;2.03;;
29838;SDS011;18669;53.356;-1.464;2023-04-03T15:04:39;3.53;;;1.48;;
29838;SDS011;18669;53.356;-1.464;2023-04-03T15:07:25;3.50;;;1.90;;
29838;SDS011;18669;53.356;-1.464;2023-04-03T15:10:20;4.28;;;2.10;;
29838;SDS011;18669;53.356;-1.464;2023-04-03T15:13:15;4.80;;;1.85;;
29838;SDS011;18669;53.356;-1.464;2023-04-03T15:16:00;4.68;;;2.13;;
29838;SDS011;18669;53.356;-1.464;2023-04-03T15:18:45;4.13;;;1.60;;
29838;SDS011;18669;53.356;-1.464;2023-04-03T15:21:31;5.68;;;2.10;;
29838;SDS011;18669;53.356;-1.464;2023-04-03T15:24:16;4.85;;;1.95;;
29838;SDS011;18669;53.356;-1.464;2023-04-03T15:27:01;5.50;;;1.85;;
29838;SDS011;18669;53.356;-1.464;2023-04-03T15:29:46;9.80;;;1.80;;
29838;SDS011;18669;53.356;-1.464;2023-04-03T15:32:31;5.97;;;2.13;;
29838;SDS011;18669;53.356;-1.464;2023-04-03T15:35:17;4.45;;;2.10;;
29838;SDS011;18669;53.356;-1.464;2023-04-03T15:38:02;5.07;;;2.10;;
29838;SDS011;18669;53.356;-1.464;2023-04-03T15:40:47;3.83;;;1.90;;
29838;SDS011;18669;53.356;-1.464;2023-04-03T15:43:32;6.13;;;2.10;;
29838;SDS011;18669;53.356;-1.464;2023-04-03T15:46:18;5.73;;;2.37;;
29838;SDS011;18669;53.356;-1.464;2023-04-03T15:49:03;5.00;;;1.95;;
29838;SDS011;18669;53.356;-1.464;2023-04-03T15:51:48;4.40;;;2.17;;
29838;SDS011;18669;53.356;-1.464;2023-04-03T15:54:33;5.35;;;2.00;;
29838;SDS011;18669;53.356;-1.464;2023-04-03T15:57:17;3.88;;;1.90;;
29838;SDS011;18669;53.356;-1.464;2023-04-03T16:00:03;5.32;;;2.17;;
29838;SDS011;18669;53.356;-1.464;2023-04-03T16:02:50;6.20;;;2.17;;
29838;SDS011;18669;53.356;-1.464;2023-04-03T16:05:37;4.07;;;2.03;;
29838;SDS011;18669;53.356;-1.464;2023-04-03T16:08:23;3.90;;;2.40;;
29838;SDS011;18669;53.356;-1.464;2023-04-03T16:11:09;10.83;;;2.33;;
29838;SDS011;18669;53.356;-1.464;2023-04-03T16:13:54;5.50;;;2.22;;
29838;SDS011;18669;53.356;-1.464;2023-04-03T16:16:39;5.88;;;1.88;;
29838;SDS011;18669;53.356;-1.464;2023-04-03T16:19:24;4.97;;;2.22;;
29838;SDS011;18669;53.356;-1.464;2023-04-03T16:22:09;3.92;;;1.90;;
29838;SDS011;18669;53.356;-1.464;2023-04-03T16:24:54;3.72;;;2.10;;
29838;SDS011;18669;53.356;-1.464;2023-04-03T16:27:39;6.68;;;2.22;;
29838;SDS011;18669;53.356;-1.464;2023-04-03T16:30:24;8.18;;;2.40;;
29838;SDS011;18669;53.356;-1.464;2023-04-03T16:33:10;3.47;;;2.00;;
29838;SDS011;18669;53.356;-1.464;2023-04-03T16:35:56;4.55;;;2.10;;
29838;SDS011;18669;53.356;-1.464;2023-04-03T16:38:41;9.23;;;2.45;;
29838;SDS011;18669;53.356;-1.464;2023-04-03T16:41:26;4.65;;;2.30;;
29838;SDS011;18669;53.356;-1.464;2023-04-03T16:44:11;9.27;;;2.53;;
29838;SDS011;18669;53.356;-1.464;2023-04-03T16:46:56;6.43;;;3.05;;
29838;SDS011;18669;53.356;-1.464;2023-04-03T16:49:41;8.77;;;3.25;;
29838;SDS011;18669;53.356;-1.464;2023-04-03T16:52:26;7.25;;;2.67;;
29838;SDS011;18669;53.356;-1.464;2023-04-03T16:55:11;5.22;;;2.80;;
29838;SDS011;18669;53.356;-1.464;2023-04-03T16:57:55;6.32;;;2.92;;
29838;SDS011;18669;53.356;-1.464;2023-04-03T17:00:40;5.18;;;2.55;;
29838;SDS011;18669;53.356;-1.464;2023-04-03T17:03:26;6.10;;;2.38;;
29838;SDS011;18669;53.356;-1.464;2023-04-03T17:06:12;8.52;;;2.67;;
29838;SDS011;18669;53.356;-1.464;2023-04-03T17:09:01;10.18;;;2.60;;
29838;SDS011;18669;53.356;-1.464;2023-04-03T17:11:46;15.25;;;2.67;;
29838;SDS011;18669;53.356;-1.464;2023-04-03T17:14:31;6.30;;;2.60;;
29838;SDS011;18669;53.356;-1.464;2023-04-03T17:17:18;6.63;;;2.65;;
29838;SDS011;18669;53.356;-1.464;2023-04-03T17:20:06;4.22;;;2.50;;
29838;SDS011;18669;53.356;-1.464;2023-04-03T17:22:52;5.28;;;2.35;;
29838;SDS011;18669;53.356;-1.464;2023-04-03T17:25:37;4.28;;;2.50;;
29838;SDS011;18669;53.356;-1.464;2023-04-03T17:28:22;8.20;;;2.78;;
29838;SDS011;18669;53.356;-1.464;2023-04-03T17:31:12;7.38;;;2.50;;
29838;SDS011;18669;53.356;-1.464;2023-04-03T17:33:57;5.85;;;2.70;;
29838;SDS011;18669;53.356;-1.464;2023-04-03T17:36:45;6.82;;;2.58;;
29838;SDS011;18669;53.356;-1.464;2023-04-03T17:39:30;6.68;;;2.65;;
29838;SDS011;18669;53.356;-1.464;2023-04-03T17:42:14;6.60;;;4.22;;
29838;SDS011;18669;53.356;-1.464;2023-04-03T17:44:59;7.88;;;2.70;;
29838;SDS011;18669;53.356;-1.464;2023-04-03T17:47:44;6.50;;;2.95;;
29838;SDS011;18669;53.356;-1.464;2023-04-03T17:50:29;5.00;;;2.65;;
29838;SDS011;18669;53.356;-1.464;2023-04-03T17:53:14;5.45;;;3.00;;
29838;SDS011;18669;53.356;-1.464;2023-04-03T17:56:09;6.28;;;3.10;;
29838;SDS011;18669;53.356;-1.464;2023-04-03T17:58:56;8.95;;;3.00;;
29838;SDS011;18669;53.356;-1.464;2023-04-03T18:01:44;8.40;;;2.88;;
29838;SDS011;18669;53.356;-1.464;2023-04-03T18:04:31;7.90;;;3.70;;
29838;SDS011;18669;53.356;-1.464;2023-04-03T18:07:15;7.80;;;3.33;;
29838;SDS011;18669;53.356;-1.464;2023-04-03T18:10:00;7.85;;;3.40;;
29838;SDS011;18669;53.356;-1.464;2023-04-03T18:12:48;5.88;;;3.17;;
29838;SDS011;18669;53.356;-1.464;2023-04-03T18:15:33;8.10;;;3.40;;
29838;SDS011;18669;53.356;-1.464;2023-04-03T18:18:18;9.50;;;2.92;;